Flight Track Log - Related Links

Times and Time Zones

All times are in EDT time to prevent confusion due to time zone crossing. See the SKQ221 flight status page for this flight to view local times or setup timezone preferences in your user account.

Time Position Orientation Groundspeed Altitude Reporting Facility
EDT Latitude Longitude Course Direction KTS MPH feet Rate Location/Type
Tue 07:08:25 PM 39.9939 -82.8819 360° North 116 133 1,300  Level Indianapolis Center
Tue 07:09:45 PM 40.0381 -82.8817 360° North 145 167 2,500 928 Climbing Indianapolis Center
Tue 07:10:02 PM 40.0500 -82.8858 345° North 142 163 2,800 900 Climbing Indianapolis Center
Tue 07:10:45 PM 40.0767 -82.8969 342° North 148 170 3,400 871 Climbing Indianapolis Center
Tue 07:11:04 PM 40.0892 -82.9003 348° North 144 166 3,700 1,075 Climbing Indianapolis Center
Tue 07:11:52 PM 40.1142 -82.9311 317° Northwest 157 181 4,600 939 Climbing Indianapolis Center
Tue 07:12:59 PM 40.1400 -82.9831 303° West 165 190 5,500 565 Climbing Indianapolis Center
Tue 07:14:10 PM 40.1722 -83.0378 308° West 170 196 5,900 220 Climbing Indianapolis Center
Tue 07:14:48 PM 40.1958 -83.0850 303° West 215 247 5,900  Level Indianapolis Center
Tue 07:15:12 PM 40.2044 -83.0975 312° West 192 221 5,900  Level Indianapolis Center
Tue 07:15:43 PM 40.2256 -83.1378 304° West 188 216 5,900  Level Indianapolis Center
Tue 07:16:14 PM 40.2419 -83.1642 309° West 195 224 5,900  Level Indianapolis Center
Tue 07:16:50 PM 40.2611 -83.1994 305° West 189 217 5,900  Level Indianapolis Center
Tue 07:17:16 PM 40.2728 -83.2208 306° West 192 221 5,900  Level Indianapolis Center
Tue 07:17:51 PM 40.2925 -83.2578 305° West 195 224 5,900  Level Indianapolis Center
Tue 07:18:18 PM 40.3058 -83.2792 309° West 196 226 5,900  Level Indianapolis Center
Tue 07:18:52 PM 40.3239 -83.3189 301° West 200 230 5,900  Level Indianapolis Center
Tue 07:19:20 PM 40.3375 -83.3383 313° West 196 226 5,900  Level Indianapolis Center
Tue 07:19:53 PM 40.3553 -83.3775 301° West 198 228 5,900  Level Indianapolis Center
Tue 07:20:22 PM 40.3689 -83.3967 313° West 197 227 5,900  Level Indianapolis Center
Tue 07:20:54 PM 40.3867 -83.4361 301° West 196 226 5,900  Level Indianapolis Center
Tue 07:21:24 PM 40.3997 -83.4564 310° West 196 226 5,900  Level Indianapolis Center
Tue 07:22:26 PM 40.4311 -83.5153 305° West 197 227 5,900  Level Indianapolis Center
Tue 07:23:28 PM 40.4678 -83.5828 306° West 194 223 5,900  Level Indianapolis Center
Tue 07:24:30 PM 40.4986 -83.6433 304° West 197 227 5,900  Level Indianapolis Center
Tue 07:25:32 PM 40.5311 -83.7008 307° West 196 226 5,900  Level Indianapolis Center
Tue 07:26:34 PM 40.5631 -83.7619 305° West 200 230 5,900  Level Indianapolis Center
Tue 07:27:36 PM 40.5947 -83.8222 305° West 198 228 5,900  Level Indianapolis Center
Tue 07:28:38 PM 40.6264 -83.8833 304° West 199 229 5,900  Level Indianapolis Center
Tue 07:29:40 PM 40.6569 -83.9439 304° West 200 230 5,900  Level Indianapolis Center
Tue 07:30:42 PM 40.6947 -84.0136 306° West 199 229 5,900 49 Level Indianapolis Center
Tue 07:31:43 PM 40.7264 -84.0736 305° West 198 228 6,000  Climbing Indianapolis Center
Tue 07:32:45 PM 40.7578 -84.1331 305° West 197 227 5,900 -48 Descending Indianapolis Center
Tue 07:33:47 PM 40.7889 -84.1950 304° West 198 228 5,900  Level Indianapolis Center
Tue 07:34:49 PM 40.8200 -84.2550 304° West 198 228 5,900  Level Indianapolis Center
Tue 07:35:51 PM 40.8508 -84.3142 305° West 196 226 5,900  Level Indianapolis Center
Tue 07:36:52 PM 40.8811 -84.3733 304° West 194 223 5,900  Level Indianapolis Center
Tue 07:37:10 PM 40.8908 -84.3856 316° Northwest 195 224 5,900  Level Chicago Center
Tue 07:38:12 PM 40.9272 -84.4578 304° West 196 226 5,900  Level Chicago Center
Tue 07:39:14 PM 40.9581 -84.5172 304° West 196 226 5,900  Level Chicago Center
Tue 07:40:16 PM 40.9881 -84.5756 304° West 195 224 5,900  Level Chicago Center
Tue 07:41:19 PM 41.0183 -84.6331 305° West 192 221 5,900  Level Chicago Center
Tue 07:42:21 PM 41.0467 -84.6892 304° West 188 216 5,900  Level Chicago Center
Tue 07:43:23 PM 41.0764 -84.7481 304° West 190 219 5,900  Level Chicago Center
Tue 07:44:25 PM 41.1108 -84.8175 303° West 189 217 5,900  Level Chicago Center
Tue 07:45:27 PM 41.1400 -84.8744 304° West 188 216 5,900  Level Chicago Center
Tue 07:46:29 PM 41.1703 -84.9314 305° West 189 217 5,900  Level Chicago Center
Tue 07:47:31 PM 41.1994 -84.9889 304° West 188 216 5,900  Level Chicago Center
Tue 07:48:33 PM 41.2283 -85.0483 303° West 189 217 5,900  Level Chicago Center
Tue 07:49:35 PM 41.2578 -85.1064 304° West 190 219 5,900  Level Chicago Center
Tue 07:50:37 PM 41.2931 -85.1761 304° West 190 219 5,900  Level Chicago Center
Tue 07:51:39 PM 41.3228 -85.2350 304° West 190 219 5,900  Level Chicago Center
Tue 07:52:41 PM 41.3525 -85.2925 305° West 190 219 5,900  Level Chicago Center
Tue 07:53:43 PM 41.3808 -85.3508 303° West 189 217 5,900  Level Chicago Center
Tue 07:54:45 PM 41.4100 -85.4100 303° West 189 217 5,900  Level Chicago Center
Tue 07:55:48 PM 41.4397 -85.4694 304° West 190 219 5,900  Level Chicago Center
Tue 07:56:50 PM 41.4692 -85.5286 304° West 191 220 5,900  Level Chicago Center
Tue 07:57:52 PM 41.5044 -85.5997 304° West 190 219 5,900 48 Level Chicago Center
Tue 07:58:54 PM 41.5339 -85.6597 303° West 191 220 6,000 48 Climbing Chicago Center
Tue 07:59:56 PM 41.5639 -85.7197 304° West 192 221 6,000  Level Chicago Center
Tue 08:00:58 PM 41.5933 -85.7783 304° West 191 220 6,000  Level Chicago Center
Tue 08:02:00 PM 41.6225 -85.8386 303° West 191 220 6,000  Level Chicago Center
Tue 08:03:02 PM 41.6508 -85.8986 302° West 190 219 6,000  Level Chicago Center
Tue 08:04:04 PM 41.6811 -85.9578 304° West 192 221 6,000  Level Chicago Center
Tue 08:05:06 PM 41.7167 -86.0294 304° West 193 222 6,000  Level Chicago Center
Tue 08:06:08 PM 41.7464 -86.0889 304° West 193 222 6,000  Level Chicago Center
Tue 08:07:10 PM 41.7758 -86.1481 304° West 192 221 6,000  Level Chicago Center
Tue 08:08:12 PM 41.8039 -86.2075 302° West 190 219 6,000  Level Chicago Center
Tue 08:09:14 PM 41.8322 -86.2675 302° West 191 220 6,000 -145 Level Chicago Center
Tue 08:10:16 PM 41.8619 -86.3292 303° West 196 226 5,700 -339 Descending Chicago Center
Tue 08:11:18 PM 41.8989 -86.4050 303° West 202 232 5,300 -435 Descending Chicago Center
Tue 08:12:20 PM 41.9303 -86.4681 304° West 202 232 4,800 -532 Descending Chicago Center
Tue 08:13:22 PM 41.9594 -86.5356 300° West 207 238 4,200 -387 Descending Chicago Center
Tue 08:14:24 PM 41.9908 -86.5975 304° West 204 235 4,000 -97 Descending Chicago Center
Tue 08:15:26 PM 42.0200 -86.6561 304° West 193 222 4,000  Level Chicago Center
Tue 08:16:28 PM 42.0486 -86.7158 303° West 191 220 4,000  Level Chicago Center
Tue 08:17:30 PM 42.0817 -86.7817 304° West 185 213 4,000  Level Chicago Center
Tue 08:18:32 PM 42.1108 -86.8439 302° West 187 215 4,000  Level Chicago Center
Tue 08:19:34 PM 42.1389 -86.9011 303° West 184 212 4,000  Level Chicago Center
Tue 08:20:36 PM 42.1589 -86.9633 293° West 191 220 4,000  Level Chicago Center
Tue 08:21:38 PM 42.1614 -87.0311 273° West 184 212 4,000  Level Chicago Center
Tue 08:22:40 PM 42.1681 -87.1008 277° West 184 212 4,000  Level Chicago Center
Tue 08:23:42 PM 42.1728 -87.1822 275° West 185 213 4,000  Level Chicago Center
Tue 08:24:44 PM 42.1772 -87.2492 275° West 183 211 4,000  Level Chicago Center
Tue 08:25:46 PM 42.1825 -87.3156 276° West 181 208 4,000  Level Chicago Center
Tue 08:26:48 PM 42.1869 -87.3819 275° West 181 208 4,000 -290 Level Chicago Center
Tue 08:27:50 PM 42.1911 -87.4631 274° West 181 208 3,400 -480 Descending Chicago Center
Tue 08:28:53 PM 42.1956 -87.5331 275° West 184 212 3,000 -192 Descending Chicago Center
Tue 08:29:55 PM 42.2008 -87.5992 276° West 184 212 3,000 -48 Level Chicago Center
Tue 08:30:57 PM 42.2042 -87.6592 274° West 176 203 2,900 -97 Descending Chicago Center
Tue 08:31:59 PM 42.2022 -87.7314 268° West 173 199 2,800 -97 Descending Chicago Center
Tue 08:33:00 PM 42.2002 -87.8010 285° West  Level FlightAware Approximate
Tue 08:40:00 PM 42.1143 -87.9015 166° South  Level Estimated
Tue 08:41:00 PM 42.1143 -87.9015 166° South  Level Estimated
Tue 08:42:00 PM 42.1143 -87.9015 166° South  Level Estimated

Login

Don't have an account? Register now (free) for customized features, flight alerts, and more!